Latest Weather Observations for Point Stuart

IDD60801

Issued at 2:31 pm CST Saturday 30 July 2016 (issued every 30 minutes, with the page automatically refreshed every 10 minutes)

About weather observations | Map of weather stations | Latest weather observations for NT | Other Formats
Station Details ID: 014254 Name: POINT STUART Lat: -12.24 Lon: 131.88 Height: 1.0 m
Data from the previous 72 hours. | See also: Recent months at Point Stuart
Date/Time
CST
Temp
°C
App
Temp
°C
Dew
Point
°C
Rel
Hum
%
Delta-T
°C
Wind Press
QNH
hPa
Press
MSL
hPa
Rain since
9am
mm
Dir  Spd
km/h
Gust
km/h
Spd
kts
Gust
kts
30/02:30pm 31.9 29.4 12.2 30 11.6 NE 17 22 9 12 1010.1 - 0.0
30/02:00pm 32.0 30.2 13.2 31 11.3 NNE 15 20 8 11 1010.6 - 0.0
30/01:30pm 32.4 30.1 13.1 31 11.6 ENE 17 26 9 14 1011.2 - 0.0
30/01:00pm 31.9 28.3 11.7 29 11.8 E 22 32 12 17 1011.7 - 0.0
30/12:30pm 31.2 27.7 12.1 31 11.2 E 22 30 12 16 1012.3 - 0.0
30/12:00pm 30.6 27.4 13.0 34 10.5 E 22 32 12 17 1012.7 1012.7 0.0
30/11:30am 30.4 27.0 13.7 36 10.0 E 24 32 13 17 1013.1 - 0.0
30/11:00am 29.3 25.6 13.9 39 9.2 E 26 33 14 18 1013.5 - 0.0
30/10:30am 28.5 25.3 14.3 41 8.5 ESE 24 30 13 16 1013.8 - 0.0
30/10:00am 27.6 23.8 14.6 45 7.8 E 28 39 15 21 1013.9 - 0.0
30/09:37am 27.4 23.7 15.1 47 7.5 ESE 28 46 15 25 1014.0 - 0.0
30/09:30am 27.4 24.7 15.7 48 7.2 ESE 24 33 13 18 1013.9 - 0.0
30/09:00am 25.1 22.7 14.3 51 6.4 E 20 30 11 16 1013.8 1013.8 0.0
30/08:30am 23.7 21.1 13.3 52 6.0 ESE 19 26 10 14 1013.6 - 0.0
30/08:00am 21.6 19.0 11.9 54 5.4 SE 17 22 9 12 1013.5 - 0.0
30/07:30am 18.3 16.1 9.4 56 4.7 SSE 11 17 6 9 1013.1 - 0.0
30/07:00am 18.3 15.5 8.6 53 5.0 SE 13 15 7 8 1012.9 - 0.0
30/06:30am 18.5 16.1 8.5 52 5.2 ESE 11 13 6 7 1012.6 - 0.0
30/06:00am 18.5 16.4 8.2 51 5.3 ESE 9 11 5 6 1012.3 1012.3 0.0
30/05:30am 18.9 16.4 8.3 50 5.5 SE 11 13 6 7 1012.1 - 0.0
30/05:00am 18.8 16.3 8.2 50 5.5 SE 11 13 6 7 1012.1 - 0.0
30/04:30am 19.2 17.1 8.2 49 5.7 ESE 9 11 5 6 1011.9 - 0.0
30/04:00am 19.6 17.1 8.3 48 5.9 ESE 11 13 6 7 1011.9 - 0.0
30/03:30am 20.3 18.4 8.9 48 6.0 ESE 9 11 5 6 1012.0 - 0.0
30/03:00am 21.4 18.6 9.9 48 6.2 ESE 15 20 8 11 1012.0 1012.0 0.0
30/02:30am 21.1 18.7 10.0 49 6.0 E 13 17 7 9 1012.1 - 0.0
30/02:00am 22.3 19.9 10.1 46 6.6 ESE 13 19 7 10 1012.1 - 0.0
30/01:30am 23.0 20.6 11.4 48 6.5 SE 15 19 8 10 1012.3 - 0.0
30/01:00am 22.9 20.5 12.8 53 5.8 SE 17 20 9 11 1012.4 - 0.0
30/12:30am 19.6 17.7 11.9 61 4.3 SSE 13 15 7 8 1012.5 - 0.0
30/12:00am 19.5 18.4 11.8 61 4.3 S 9 11 5 6 1012.7 1012.7 0.0
 
Date/Time
CST
Temp
°C
App
Temp
°C
Dew
Point
°C
Rel
Hum
%
Delta-T
°C
Wind Press
QNH
hPa
Press
MSL
hPa
Rain since
9am
mm
Dir  Spd
km/h
Gust
km/h
Spd
kts
Gust
kts
29/11:30pm 19.6 18.0 11.6 60 4.4 SSW 11 11 6 6 1012.9 - 0.0
29/11:00pm 20.5 19.1 12.2 59 4.6 S 11 13 6 7 1013.2 - 0.0
29/10:30pm 21.1 20.3 12.8 59 4.7 S 9 11 5 6 1013.0 - 0.0
29/10:00pm 22.1 21.6 13.7 59 4.9 S 9 11 5 6 1012.9 - 0.0
29/09:30pm 22.3 21.4 13.6 58 5.0 S 11 13 6 7 1012.6 - 0.0
29/09:00pm 22.8 22.2 13.6 56 5.3 S 9 13 5 7 1012.3 1012.3 0.0
29/08:30pm 23.5 24.0 13.9 55 5.6 SSE 4 7 2 4 1011.8 - 0.0
29/08:00pm 24.2 25.4 13.7 52 6.1 CALM 0 0 0 0 1011.5 - 0.0
29/07:30pm 25.3 26.5 13.8 49 6.8 CALM 0 0 0 0 1011.2 - 0.0
29/07:00pm 26.5 27.5 14.3 47 7.3 N 2 7 1 4 1010.7 - 0.0
29/06:30pm 28.7 30.0 15.2 43 8.2 N 2 6 1 3 1010.3 - 0.0
29/06:00pm 29.9 30.9 14.4 38 9.4 N 2 7 1 4 1010.2 1010.2 0.0
29/05:30pm 30.7 30.9 14.3 36 9.9 NNE 6 11 3 6 1010.0 - 0.0
29/05:00pm 31.5 30.1 13.3 33 10.9 NNE 13 20 7 11 1009.9 - 0.0
29/04:30pm 32.5 29.4 12.2 29 12.0 ENE 20 26 11 14 1009.9 - 0.0
29/04:00pm 32.7 29.8 12.3 28 12.1 E 19 26 10 14 1010.0 - 0.0
29/03:30pm 33.1 29.8 11.6 27 12.6 ENE 20 28 11 15 1010.0 - 0.0
29/03:00pm 33.5 30.5 12.5 28 12.5 E 20 32 11 17 1010.2 1010.2 0.0
29/02:30pm 33.4 30.2 11.9 27 12.7 ESE 20 35 11 19 1010.4 - 0.0
29/02:00pm 32.8 29.2 11.9 28 12.3 E 22 30 12 16 1010.9 - 0.0
29/01:30pm 32.4 28.5 12.1 29 12.0 ESE 24 35 13 19 1011.4 - 0.0
29/01:00pm 32.2 28.8 12.4 30 11.7 SE 22 32 12 17 1011.7 - 0.0
29/12:30pm 31.6 27.8 12.4 31 11.4 SE 24 33 13 18 1012.3 - 0.0
29/12:00pm 31.0 27.6 12.4 32 11.0 ESE 22 35 12 19 1012.8 1012.8 0.0
29/11:30am 30.3 26.2 12.7 34 10.4 ESE 26 35 14 19 1013.3 - 0.0
29/11:00am 29.9 26.3 13.2 36 9.9 ESE 24 39 13 21 1013.5 - 0.0
29/10:30am 29.2 25.0 13.4 38 9.4 ESE 28 39 15 21 1013.8 - 0.0
29/10:00am 28.5 24.5 14.0 41 8.7 SE 28 37 15 20 1013.9 - 0.0
29/09:30am 27.6 24.1 14.6 45 7.8 ESE 26 37 14 20 1014.1 - 0.0
29/09:00am 26.6 24.8 15.6 50 6.7 ESE 19 26 10 14 1014.0 1014.0 0.0
29/08:30am 25.1 24.0 15.4 55 5.9 SSE 15 20 8 11 1013.7 - 0.0
29/08:00am 22.3 21.9 13.1 56 5.3 SSE 7 9 4 5 1013.7 - 0.0
29/07:30am 21.2 21.5 12.1 56 5.1 S 2 6 1 3 1013.5 - 0.0
29/07:00am 21.5 20.1 12.1 55 5.3 SSE 11 15 6 8 1013.1 - 0.0
29/06:30am 20.6 18.8 11.0 54 5.3 SE 11 11 6 6 1013.1 - 0.0
29/06:00am 20.0 18.0 10.1 53 5.3 SE 11 13 6 7 1012.9 1012.9 0.0
29/05:30am 20.4 18.7 9.9 51 5.6 SE 9 13 5 7 1012.8 - 0.0
29/05:00am 20.9 18.9 10.1 50 5.8 SE 11 13 6 7 1012.8 - 0.0
29/04:30am 20.4 18.6 9.3 49 5.9 SE 9 13 5 7 1012.8 - 0.0
29/04:00am 20.1 17.7 8.8 48 5.9 SE 11 13 6 7 1012.8 - 0.0
29/03:30am 20.1 18.0 8.4 47 6.1 SE 9 11 5 6 1012.9 - 0.0
29/03:00am 20.5 18.4 8.2 45 6.4 ESE 9 9 5 5 1013.2 1013.2 0.0
29/02:30am 20.8 18.7 8.1 44 6.6 ESE 9 11 5 6 1013.4 - 0.0
29/02:00am 21.2 18.6 7.8 42 6.9 ESE 11 11 6 6 1013.7 - 0.0
29/01:30am 21.8 19.2 7.6 40 7.4 ESE 11 13 6 7 1013.9 - 0.0
29/01:00am 22.7 19.7 7.7 38 7.8 SE 13 15 7 8 1014.0 - 0.0
29/12:30am 23.5 20.2 8.0 37 8.2 SE 15 20 8 11 1014.1 - 0.0
29/12:00am 23.9 20.6 7.9 36 8.4 SE 15 20 8 11 1014.2 1014.2 0.0
 
Date/Time
CST
Temp
°C
App
Temp
°C
Dew
Point
°C
Rel
Hum
%
Delta-T
°C
Wind Press
QNH
hPa
Press
MSL
hPa
Rain since
9am
mm
Dir  Spd
km/h
Gust
km/h
Spd
kts
Gust
kts
28/11:30pm 24.5 20.9 8.5 36 8.6 SE 17 20 9 11 1014.2 - 0.0
28/11:00pm 24.8 21.3 8.7 36 8.7 SSE 17 22 9 12 1014.1 - 0.0
28/10:30pm 25.3 21.9 9.2 36 8.8 SSE 17 26 9 14 1014.0 - 0.0
28/10:00pm 25.7 23.0 10.3 38 8.6 SSE 15 20 8 11 1014.0 - 0.0
28/09:30pm 24.7 22.1 10.6 41 7.8 SSE 15 20 8 11 1013.8 - 0.0
28/09:00pm 23.0 21.4 8.7 40 7.6 S 7 9 4 5 1013.5 1013.5 0.0
28/08:30pm 23.3 21.6 8.2 38 8.0 SSW 7 9 4 5 1013.0 - 0.0
28/08:00pm 24.5 22.7 8.0 35 8.8 SSW 7 9 4 5 1012.7 - 0.0
28/07:30pm 26.5 24.6 8.9 33 9.6 S 9 11 5 6 1012.2 - 0.0
28/07:00pm 27.7 25.8 9.0 31 10.3 SSE 9 11 5 6 1011.8 - 0.0
28/06:30pm 29.5 27.4 9.6 29 11.1 SSE 11 15 6 8 1011.4 - 0.0
28/06:00pm 30.9 29.1 10.8 29 11.6 SE 11 19 6 10 1011.0 1011.0 0.0
28/05:30pm 31.5 29.8 11.3 29 11.7 ESE 11 19 6 10 1010.8 - 0.0
28/05:00pm 31.4 30.2 11.7 29 11.5 E 9 15 5 8 1010.5 - 0.0
28/04:30pm 31.7 29.7 11.5 29 11.8 ENE 13 20 7 11 1010.5 - 0.0
28/04:00pm 31.7 28.4 11.0 28 12.0 ENE 19 26 10 14 1010.5 - 0.0
28/03:30pm 32.1 28.7 10.7 27 12.3 E 19 28 10 15 1010.7 - 0.0
28/03:00pm 32.0 28.4 10.7 27 12.3 E 20 30 11 16 1011.1 1011.1 0.0
28/02:30pm 31.6 28.5 10.3 27 12.2 E 17 30 9 16 1011.5 - 0.0
28/02:00pm 31.7 27.9 11.0 28 12.0 E 22 32 12 17 1011.8 - 0.0
28/01:30pm 31.0 27.7 10.9 29 11.6 ESE 19 28 10 15 1012.4 - 0.0
28/01:00pm 30.1 26.3 11.1 31 10.9 SE 22 35 12 19 1012.9 - 0.0
28/12:30pm 29.6 25.4 11.2 32 10.6 SE 24 35 13 19 1013.2 - 0.0
28/12:00pm 29.1 24.2 11.2 33 10.3 SE 28 35 15 19 1013.9 1013.9 0.0
28/11:30am 28.4 23.9 11.5 35 9.7 SE 26 44 14 24 1014.4 - 0.0
28/11:00am 27.7 22.9 11.7 37 9.2 SE 28 37 15 20 1014.7 - 0.0
28/10:40am 26.8 22.0 11.7 39 8.6 SE 28 48 15 26 1014.9 - 0.0
28/10:30am 26.7 21.6 12.0 40 8.5 SE 30 41 16 22 1015.1 - 0.0
28/10:00am 25.7 22.4 12.9 45 7.4 SSE 22 32 12 17 1015.5 - 0.0
28/09:30am 24.7 21.5 13.0 48 6.8 SSE 22 33 12 18 1015.9 - 0.0
28/09:00am 23.6 20.3 12.9 51 6.2 SSE 22 30 12 16 1015.9 1015.9 0.0
28/08:30am 22.1 19.6 12.4 54 5.5 SSE 17 24 9 13 1015.9 - 0.0
28/08:00am 20.1 17.7 11.3 57 4.8 SSE 15 22 8 12 1015.7 - 0.0
28/07:30am 18.2 15.9 10.3 60 4.2 SSE 13 15 7 8 1015.5 - 0.0
28/07:00am 17.8 15.3 9.7 59 4.3 S 13 15 7 8 1015.2 - 0.0
28/06:30am 18.1 15.6 9.7 58 4.4 SSE 13 15 7 8 1014.8 - 0.0
28/06:00am 18.6 16.2 9.9 57 4.6 SSE 13 15 7 8 1014.5 1014.5 0.0
28/05:30am 19.2 16.5 10.2 56 4.8 SE 15 17 8 9 1014.3 - 0.0
28/05:00am 19.5 16.8 10.5 56 4.9 SE 15 20 8 11 1014.3 - 0.0
28/04:30am 19.3 16.6 10.3 56 4.8 SE 15 19 8 10 1014.1 - 0.0
28/04:00am 19.4 17.0 10.1 55 5.0 ESE 13 15 7 8 1014.0 - 0.0
28/03:30am 19.7 17.3 10.1 54 5.1 SE 13 17 7 9 1014.1 - 0.0
28/03:00am 20.2 17.9 10.6 54 5.2 ESE 13 15 7 8 1014.1 1014.1 0.0
28/02:30am 20.1 18.1 10.2 53 5.3 ESE 11 11 6 6 1014.1 - 0.0
28/02:00am 20.8 19.4 10.9 53 5.4 SE 9 11 5 6 1014.1 - 0.0
28/01:30am 21.2 19.3 11.8 55 5.2 SE 13 17 7 9 1014.2 - 0.0
28/01:00am 21.3 20.7 12.4 57 5.0 SSE 7 9 4 5 1014.3 - 0.0
28/12:30am 22.2 21.7 12.7 55 5.4 ESE 7 7 4 4 1014.3 - 0.0
28/12:00am 23.0 22.5 12.6 52 5.9 ESE 7 9 4 5 1014.1 1014.1 0.0
 
Date/Time
CST
Temp
°C
App
Temp
°C
Dew
Point
°C
Rel
Hum
%
Delta-T
°C
Wind Press
QNH
hPa
Press
MSL
hPa
Rain since
9am
mm
Dir  Spd
km/h
Gust
km/h
Spd
kts
Gust
kts
27/11:30pm 23.7 23.2 12.7 50 6.3 ESE 7 9 4 5 1014.0 - 0.0
27/11:00pm 23.6 22.3 11.3 46 6.9 E 9 11 5 6 1014.0 - 0.0
27/10:30pm 22.3 20.0 9.1 43 7.1 SE 11 13 6 7 1013.7 - 0.0
27/10:00pm 22.6 20.3 9.0 42 7.3 SSE 11 11 6 6 1013.5 - 0.0
27/09:30pm 23.5 21.7 9.5 41 7.6 SSE 9 15 5 8 1013.5 - 0.0
27/09:00pm 24.7 23.6 10.6 41 7.8 ESE 7 9 4 5 1013.3 1013.3 0.0
27/08:30pm 25.3 23.8 10.4 39 8.3 ESE 9 11 5 6 1012.8 - 0.0
27/08:00pm 26.2 24.0 9.5 35 9.2 E 11 13 6 7 1012.6 - 0.0
27/07:30pm 27.0 24.4 9.4 33 9.7 E 13 15 7 8 1012.1 - 0.0
27/07:00pm 27.8 25.5 9.1 31 10.3 E 11 15 6 8 1012.0 - 0.0
27/06:30pm 29.3 26.9 9.9 30 10.9 ESE 13 15 7 8 1011.6 - 0.0
27/06:00pm 31.1 28.6 11.0 29 11.6 E 15 22 8 12 1011.4 1011.4 0.0
27/05:30pm 32.2 29.6 10.8 27 12.4 E 15 22 8 12 1011.0 - 0.0
27/05:00pm 32.9 29.7 11.4 27 12.6 E 19 28 10 15 1010.7 - 0.0
27/04:30pm 33.1 29.6 11.0 26 12.9 ESE 20 32 11 17 1010.6 - 0.0
27/04:00pm 32.9 29.1 12.5 29 12.1 E 24 32 13 17 1010.6 - 0.0
27/03:30pm 32.7 28.9 12.3 28 12.1 E 24 39 13 21 1010.6 - 0.0
27/03:00pm 33.0 29.2 13.6 31 11.8 E 26 35 14 19 1010.8 1010.8 0.0

Other Formats:

Comma delimited format used in spreadsheet applications
http://www.bom.gov.au/fwo/IDD60801/IDD60801.94127.axf

JavaScript Object Notation format (JSON) in row-major order
http://www.bom.gov.au/fwo/IDD60801/IDD60801.94127.json